Terminal Aerodrome Forecast
Issued by NWS Wilmington, NC

Home | Current Version | Previous Version | Text Only | Print | Product List | Glossary On
Versions: 1 2 3 4 5 6 7 8 9 10 11 12 13 14 15 16 17 18 19 20 21 22 23 24 25 26 27 28
000
FTUS42 KILM 221312 AAA
TAFILM
TAF AMD
KILM 221312Z 2213/2312 18003KT P6SM SCT020
     FM221500 20006KT P6SM SCT025
     FM230000 00000KT P6SM SKC
     FM230600 18002KT 4SM BR SCT250
     FM230900 00000KT 1/2SM FG SCT250=

USA.gov is the U.S. government's official web portal to all federal, state and local government web resources and services.